Time;durP1;ratioP1;P1;durP2;ratioP2;P2;SDS_P1;SDS_P2;PMS_P1;PMS_P2;Temp;Humidity;BMP_temperature;BMP_pressure;BME280_temperature;BME280_humidity;BME280_pressure;Samples;Min_cycle;Max_cycle;Signal;HPM_P1;HPM_P2
2021/04/12 00:00:21;;;;;;;4.25;2.40;;;;;;;1.20;76.22;102344.09;5135223;27;20467;-42
2021/04/12 00:02:52;;;;;;;6.95;2.65;;;;;;;1.18;75.90;102339.91;5135191;27;20023;-42
2021/04/12 00:05:35;;;;;;;4.07;2.40;;;;;;;1.14;76.45;102339.31;5135433;27;20030;-42
2021/04/12 00:08:05;;;;;;;5.15;2.42;;;;;;;1.14;76.84;102352.63;5135987;27;20034;-42
2021/04/12 00:10:39;;;;;;;7.88;2.40;;;;;;;1.14;76.83;102349.13;5135606;27;20031;-42
2021/04/12 00:13:21;;;;;;;4.07;2.10;;;;;;;1.09;76.70;102346.84;5135570;27;20035;-42
2021/04/12 00:15:51;;;;;;;3.65;2.42;;;;;;;1.17;76.90;102354.19;5135858;27;20096;-42
2021/04/12 00:18:25;;;;;;;7.55;2.60;;;;;;;1.10;77.20;102350.38;5135481;27;20031;-42
2021/04/12 00:20:56;;;;;;;5.95;2.38;;;;;;;1.10;77.03;102359.19;5134732;27;20375;-42
2021/04/12 00:23:56;;;;;;;4.70;2.50;;;;;;;1.15;77.34;102361.47;5134865;27;20055;-42
2021/04/12 00:26:38;;;;;;;4.60;2.20;;;;;;;1.22;77.46;102368.81;5092103;28;20483;-42
2021/04/12 00:29:08;;;;;;;5.32;1.98;;;;;;;1.13;77.20;102360.78;5091839;28;20028;-42
2021/04/12 00:31:48;;;;;;;5.90;2.67;;;;;;;1.18;76.74;102361.22;5092401;28;20537;-42
2021/04/12 00:34:47;;;;;;;7.22;2.50;;;;;;;1.17;77.27;102357.72;5091996;28;20407;-42
2021/04/12 00:37:29;;;;;;;4.82;2.55;;;;;;;1.18;77.53;102372.72;5092374;28;20460;-42
2021/04/12 00:40:09;;;;;;;7.88;2.28;;;;;;;1.15;77.33;102366.78;5091820;28;20062;-42
2021/04/12 00:42:49;;;;;;;4.85;2.10;;;;;;;1.09;77.49;102370.00;5074522;28;20458;-42
2021/04/12 00:45:42;;;;;;;5.97;2.30;;;;;;;1.09;76.87;102384.16;5091968;28;20384;-42
2021/04/12 00:48:29;;;;;;;5.28;2.38;;;;;;;1.01;77.63;102371.47;5091496;28;20032;-42
2021/04/12 00:51:01;;;;;;;4.28;2.28;;;;;;;1.05;77.43;102369.41;5091960;28;20036;-42
2021/04/12 00:53:45;;;;;;;6.43;2.35;;;;;;;1.05;77.58;102374.72;5091457;28;20102;-42
2021/04/12 00:56:35;;;;;;;5.85;2.40;;;;;;;1.00;77.98;102374.28;5091772;28;20035;-42
2021/04/12 00:59:00;;;;;;;8.57;2.63;;;;;;;0.94;78.00;102374.81;5091382;28;20035;-42
2021/04/12 01:01:35;;;;;;;5.77;2.37;;;;;;;0.99;78.22;102372.59;5092159;28;20474;-42
2021/04/12 01:04:24;;;;;;;3.95;2.40;;;;;;;0.89;78.95;102372.53;5134790;27;20460;-42
2021/04/12 01:07:07;;;;;;;4.18;2.30;;;;;;;0.97;78.55;102380.72;5134470;27;20039;-42
2021/04/12 01:09:59;;;;;;;3.97;2.10;;;;;;;0.95;78.76;102381.81;5135024;27;20023;-42
2021/04/12 01:13:02;;;;;;;6.70;2.53;;;;;;;0.93;78.34;102379.31;5135268;27;20382;-42
2021/04/12 01:15:47;;;;;;;6.05;2.63;;;;;;;0.85;78.00;102378.25;5134152;28;20467;-42
2021/04/12 01:18:30;;;;;;;7.03;3.17;;;;;;;0.79;78.11;102376.13;5134962;27;20071;-42
2021/04/12 01:21:13;;;;;;;5.97;2.60;;;;;;;0.80;77.77;102383.13;5135425;27;20055;-42
2021/04/12 01:24:05;;;;;;;6.72;2.58;;;;;;;0.78;78.00;102380.56;5134935;27;20020;-42
2021/04/12 01:27:06;;;;;;;6.15;3.00;;;;;;;0.76;77.81;102378.06;5134480;28;20063;-42
2021/04/12 01:30:02;;;;;;;4.60;2.42;;;;;;;0.72;77.57;102395.25;5134080;27;20419;-42
2021/04/12 01:33:04;;;;;;;5.95;2.50;;;;;;;0.66;77.11;102393.13;5138352;27;20032;-42
2021/04/12 01:36:02;;;;;;;6.05;2.65;;;;;;;0.67;77.67;102393.94;5138981;27;20072;-42
2021/04/12 01:38:39;;;;;;;4.05;2.35;;;;;;;0.61;78.34;102392.66;5138854;27;20076;-42
2021/04/12 01:41:24;;;;;;;5.78;2.47;;;;;;;0.55;76.89;102397.66;5138630;27;20028;-42
2021/04/12 01:44:28;;;;;;;6.32;2.88;;;;;;;0.55;77.71;102401.16;5138558;27;20023;-42
2021/04/12 01:47:07;;;;;;;4.60;2.67;;;;;;;0.49;78.45;102402.53;5138926;27;20055;-42
2021/04/12 01:49:41;;;;;;;4.97;2.83;;;;;;;0.47;78.75;102407.09;5137838;27;20023;-42
2021/04/12 01:52:20;;;;;;;7.95;2.88;;;;;;;0.46;78.86;102407.25;5138093;27;20034;-42
2021/04/12 01:55:05;;;;;;;4.45;2.65;;;;;;;0.41;78.76;102404.13;5138269;27;20019;-42
2021/04/12 01:57:47;;;;;;;6.03;2.85;;;;;;;0.39;78.59;102403.38;5138315;27;20035;-42
2021/04/12 02:00:31;;;;;;;5.95;2.72;;;;;;;0.44;79.41;102404.72;5138708;27;20027;-42
2021/04/12 02:02:56;;;;;;;5.03;2.50;;;;;;;0.39;79.73;102409.56;5137578;27;20024;-42
2021/04/12 02:05:55;;;;;;;6.23;2.73;;;;;;;0.41;76.82;102407.63;5138037;27;20367;-42
2021/04/12 02:08:34;;;;;;;4.35;2.40;;;;;;;0.35;78.10;102415.28;5138025;27;20027;-42
2021/04/12 02:11:35;;;;;;;5.28;2.72;;;;;;;0.45;78.80;102424.19;5137725;27;20051;-42
2021/04/12 02:14:09;;;;;;;6.63;3.17;;;;;;;0.30;79.15;102431.63;5095157;28;20431;-42
2021/04/12 02:17:10;;;;;;;5.70;2.63;;;;;;;0.35;79.21;102420.59;5094535;28;20060;-42
2021/04/12 02:20:16;;;;;;;7.78;2.58;;;;;;;0.37;78.29;102431.94;5094342;28;20048;-42
2021/04/12 02:22:57;;;;;;;4.90;3.13;;;;;;;0.30;79.20;102433.44;5094884;28;20044;-42
2021/04/12 02:25:40;;;;;;;3.47;2.47;;;;;;;0.20;78.76;102436.00;5094395;28;20496;-42
2021/04/12 02:28:33;;;;;;;5.95;2.72;;;;;;;0.27;79.61;102439.00;5094337;28;20063;-42
2021/04/12 02:31:21;;;;;;;5.80;2.67;;;;;;;0.22;78.98;102447.34;5094099;28;20028;-42
2021/04/12 02:33:58;;;;;;;6.95;2.80;;;;;;;0.18;79.60;102446.75;5094642;28;20051;-42
2021/04/12 02:36:41;;;;;;;6.78;3.20;;;;;;;0.18;79.15;102449.41;5093816;28;20046;-42
2021/04/12 02:39:20;;;;;;;7.38;3.15;;;;;;;0.11;79.27;102456.19;5094211;28;20442;-42
2021/04/12 02:41:48;;;;;;;4.50;2.70;;;;;;;0.10;78.98;102451.84;5093867;28;20150;-42
2021/04/12 02:44:29;;;;;;;4.35;2.80;;;;;;;0.10;80.20;102454.50;5093724;28;20038;-42
2021/04/12 02:47:36;;;;;;;4.68;2.72;;;;;;;0.15;79.61;102456.81;5096195;27;20044;-42
2021/04/12 02:50:18;;;;;;;6.50;3.50;;;;;;;0.16;79.96;102456.66;5137236;27;20043;-42
2021/04/12 02:53:21;;;;;;;4.20;2.80;;;;;;;0.29;81.03;102455.66;5137135;27;20023;-42
2021/04/12 02:56:17;;;;;;;5.05;3.00;;;;;;;0.31;80.07;102464.38;5137233;27;20444;-42
2021/04/12 02:59:19;;;;;;;5.20;2.50;;;;;;;0.14;78.23;102465.72;5136770;27;20044;-42
2021/04/12 03:02:12;;;;;;;5.22;2.90;;;;;;;0.16;79.69;102472.63;5137187;27;20023;-42
2021/04/12 03:04:57;;;;;;;6.28;2.83;;;;;;;0.12;79.30;102473.00;5137410;27;20027;-42
2021/04/12 03:07:46;;;;;;;6.40;2.80;;;;;;;0.14;78.99;102469.22;5136463;27;20023;-42
2021/04/12 03:10:42;;;;;;;4.25;2.72;;;;;;;0.09;78.38;102474.06;5136452;27;20378;-42
2021/04/12 03:13:46;;;;;;;3.75;2.58;;;;;;;0.15;79.38;102475.44;5136789;27;20027;-42
2021/04/12 03:16:48;;;;;;;5.78;3.00;;;;;;;0.18;80.78;102478.66;5093564;28;20044;-42
2021/04/12 03:19:32;;;;;;;4.90;2.85;;;;;;;0.20;79.69;102474.09;5093120;28;20035;-42
2021/04/12 03:22:28;;;;;;;6.43;3.28;;;;;;;0.27;80.75;102477.09;5093499;28;20531;-42
2021/04/12 03:25:30;;;;;;;11.75;3.30;;;;;;;0.24;80.72;102475.53;5093763;28;20173;-42
2021/04/12 03:28:01;;;;;;;5.07;3.00;;;;;;;0.32;80.72;102472.25;5093064;28;20040;-42
2021/04/12 03:30:59;;;;;;;5.03;2.72;;;;;;;0.35;80.82;102471.16;5092868;28;20044;-42
2021/04/12 03:33:58;;;;;;;5.13;2.90;;;;;;;0.44;81.02;102481.03;5085494;28;20036;-42
2021/04/12 03:36:38;;;;;;;5.20;3.20;;;;;;;0.48;80.62;102490.47;5093456;28;20032;-42
2021/04/12 03:39:20;;;;;;;4.68;2.95;;;;;;;0.55;80.83;102490.81;5092545;28;20028;-42
2021/04/12 03:41:53;;;;;;;6.43;3.40;;;;;;;0.50;81.11;102488.53;5093390;28;20036;-42
2021/04/12 03:45:02;;;;;;;5.18;3.40;;;;;;;0.54;80.55;102484.66;5093063;28;20036;-42
2021/04/12 03:47:45;;;;;;;5.57;3.42;;;;;;;0.54;81.07;102495.31;5092931;28;20043;-42
2021/04/12 03:50:29;;;;;;;5.85;3.30;;;;;;;0.57;81.25;102489.72;5092744;28;20107;-42
2021/04/12 03:53:19;;;;;;;4.07;3.40;;;;;;;0.62;80.39;102492.84;5112266;27;20042;-42
2021/04/12 03:56:00;;;;;;;5.97;3.70;;;;;;;0.65;81.06;102491.75;5136080;27;20027;-42
2021/04/12 03:58:50;;;;;;;4.65;3.50;;;;;;;0.70;81.00;102495.72;5135795;27;20035;-42
2021/04/12 04:01:37;;;;;;;5.10;3.80;;;;;;;0.70;81.03;102501.06;5136026;27;20443;-42
2021/04/12 04:04:36;;;;;;;5.20;3.58;;;;;;;0.73;81.19;102507.94;5135117;27;20073;-42
2021/04/12 04:07:57;;;;;;;6.45;3.83;;;;;;;0.66;81.70;102504.09;5136011;27;20340;-42
2021/04/12 04:10:37;;;;;;;5.68;3.65;;;;;;;0.68;81.31;102510.13;5092020;28;20170;-42
2021/04/12 04:13:39;;;;;;;6.07;3.08;;;;;;;0.72;81.96;102506.25;5092750;28;20032;-42
2021/04/12 04:16:33;;;;;;;5.70;3.25;;;;;;;0.77;81.05;102507.56;5075486;28;20060;-43
2021/04/12 04:19:16;;;;;;;6.38;3.33;;;;;;;0.79;81.92;102506.63;5091918;28;20123;-42
2021/04/12 04:21:41;;;;;;;4.25;3.17;;;;;;;0.82;81.84;102506.34;5091705;28;20488;-43
2021/04/12 04:24:44;;;;;;;5.87;3.43;;;;;;;0.86;81.62;102505.97;5092306;28;20063;-43
2021/04/12 04:27:34;;;;;;;4.68;3.28;;;;;;;0.83;81.99;102514.22;5092204;28;20028;-43
2021/04/12 04:30:14;;;;;;;5.30;2.90;;;;;;;0.87;81.71;102507.66;5091937;28;20361;-42
2021/04/12 04:33:17;;;;;;;4.72;3.53;;;;;;;0.90;81.58;102507.41;5091779;28;20185;-43
2021/04/12 04:36:20;;;;;;;5.30;3.35;;;;;;;0.92;82.18;102507.25;5011765;28;20157;-42
2021/04/12 04:39:33;;;;;;;6.63;3.40;;;;;;;0.96;81.17;102508.72;5009636;28;20049;-42
2021/04/12 04:42:07;;;;;;;10.77;3.35;;;;;;;0.93;82.12;102516.97;4953818;29;20043;-42
2021/04/12 04:44:57;;;;;;;5.38;3.63;;;;;;;0.92;81.64;102508.09;4964229;28;20043;-42
2021/04/12 04:47:40;;;;;;;5.45;3.45;;;;;;;0.90;81.68;102512.72;4972479;28;20121;-43
2021/04/12 04:50:42;;;;;;;6.35;3.47;;;;;;;0.87;82.39;102514.78;4972389;28;20031;-43
2021/04/12 04:53:17;;;;;;;5.13;3.30;;;;;;;0.89;81.81;102515.53;4972669;28;20451;-42
2021/04/12 04:55:50;;;;;;;3.45;3.00;;;;;;;0.92;81.88;102513.44;4972662;28;20037;-42
2021/04/12 04:58:34;;;;;;;4.90;3.20;;;;;;;0.91;81.87;102521.56;4972318;28;20051;-43
2021/04/12 05:01:12;;;;;;;4.78;3.22;;;;;;;0.92;82.92;102521.44;4972809;28;20062;-42
2021/04/12 05:04:00;;;;;;;5.53;3.30;;;;;;;0.94;82.14;102529.31;4972557;28;20137;-42
2021/04/12 05:06:58;;;;;;;4.20;3.03;;;;;;;0.91;81.81;102535.72;4972424;28;20058;-43
2021/04/12 05:10:04;;;;;;;5.38;3.38;;;;;;;0.94;82.37;102530.16;4972865;28;20027;-42
2021/04/12 05:13:04;;;;;;;4.18;3.35;;;;;;;0.94;81.88;102542.63;5011010;28;20381;-43
2021/04/12 05:16:04;;;;;;;4.40;3.08;;;;;;;0.91;82.00;102548.19;4995064;28;20079;-42
2021/04/12 05:19:08;;;;;;;4.38;3.05;;;;;;;0.99;82.19;102546.59;5065307;28;20399;-42
2021/04/12 05:22:03;;;;;;;4.25;3.10;;;;;;;1.03;82.41;102549.88;5081678;28;20040;-42
2021/04/12 05:24:43;;;;;;;4.57;2.92;;;;;;;1.08;82.63;102563.66;5031235;28;20513;-42
2021/04/12 05:27:21;;;;;;;4.15;2.70;;;;;;;1.07;81.92;102556.59;5031487;28;20029;-42
2021/04/12 05:30:17;;;;;;;6.53;3.42;;;;;;;1.09;82.27;102564.50;5031302;28;20050;-42
2021/04/12 05:32:57;;;;;;;4.88;3.67;;;;;;;1.11;81.72;102563.38;5031539;28;20088;-42
2021/04/12 05:35:51;;;;;;;5.53;3.30;;;;;;;1.21;81.60;102571.47;5031290;28;20045;-42
2021/04/12 05:38:38;;;;;;;6.47;3.33;;;;;;;1.24;81.90;102569.38;4953323;28;20058;-42
2021/04/12 05:41:41;;;;;;;6.28;3.42;;;;;;;1.31;81.68;102571.53;4952940;29;20078;-43
2021/04/12 05:44:24;;;;;;;5.03;3.10;;;;;;;1.36;81.83;102566.66;4952905;29;20034;-43
2021/04/12 05:47:14;;;;;;;4.75;3.10;;;;;;;1.46;81.24;102575.56;4952632;29;20035;-42
2021/04/12 05:49:45;;;;;;;3.58;2.90;;;;;;;1.47;80.94;102582.63;4970176;28;20047;-42
2021/04/12 05:52:55;;;;;;;6.80;3.10;;;;;;;1.60;80.20;102580.59;4972769;28;20057;-43
2021/04/12 05:55:26;;;;;;;5.72;2.70;;;;;;;1.59;80.88;102586.06;4914519;29;20048;-43
2021/04/12 05:57:57;;;;;;;4.93;2.97;;;;;;;1.68;80.48;102586.13;4914733;29;20118;-43
2021/04/12 06:00:22;;;;;;;5.22;2.92;;;;;;;1.73;80.40;102591.91;4932053;28;20138;-43
2021/04/12 06:03:08;;;;;;;3.97;2.87;;;;;;;1.89;80.00;102594.13;4972021;28;20054;-43
2021/04/12 06:05:52;;;;;;;3.50;2.72;;;;;;;2.02;80.05;102588.59;4972123;28;20038;-43
2021/04/12 06:08:46;;;;;;;4.63;2.95;;;;;;;2.09;79.02;102592.41;4971839;28;20039;-42
2021/04/12 06:11:49;;;;;;;4.18;2.50;;;;;;;2.25;79.51;102602.63;4971864;28;20038;-43
2021/04/12 06:14:26;;;;;;;4.25;2.70;;;;;;;2.25;78.99;102600.78;4996975;28;20051;-42
2021/04/12 06:17:33;;;;;;;5.63;2.75;;;;;;;2.34;78.40;102601.78;5050356;28;20033;-42
2021/04/12 06:20:10;;;;;;;3.45;2.45;;;;;;;2.31;78.81;102604.75;4994618;28;20050;-43
2021/04/12 06:22:54;;;;;;;5.85;2.45;;;;;;;2.34;78.74;102601.78;4994870;28;20038;-42
2021/04/12 06:25:41;;;;;;;5.32;2.88;;;;;;;2.41;78.53;102615.47;4995314;28;20360;-43
2021/04/12 06:28:30;;;;;;;5.35;2.95;;;;;;;2.54;78.62;102622.28;4994829;28;20034;-43
2021/04/12 06:31:22;;;;;;;3.10;2.33;;;;;;;2.70;78.08;102613.75;4999574;28;20088;-43
2021/04/12 06:34:24;;;;;;;5.68;2.83;;;;;;;2.78;77.61;102623.72;5034636;28;20028;-43
2021/04/12 06:37:17;;;;;;;4.20;1.90;;;;;;;2.85;77.42;102627.56;5034157;28;20060;-42
2021/04/12 06:40:01;;;;;;;2.95;1.88;;;;;;;2.92;77.37;102622.50;5033770;28;20037;-43
2021/04/12 06:42:41;;;;;;;2.30;1.90;;;;;;;2.95;76.92;102623.09;5033534;28;20061;-43
2021/04/12 06:45:12;;;;;;;5.30;1.80;;;;;;;3.09;76.51;102633.38;5034104;28;20046;-43
2021/04/12 06:48:09;;;;;;;3.30;1.67;;;;;;;3.22;76.65;102635.81;5033467;28;20517;-43
2021/04/12 06:51:05;;;;;;;2.38;1.60;;;;;;;3.29;75.89;102638.75;5034140;28;20042;-44
2021/04/12 06:53:58;;;;;;;3.05;1.85;;;;;;;3.46;75.87;102642.56;5034024;28;20054;-42
2021/04/12 06:56:45;;;;;;;3.97;1.40;;;;;;;3.56;75.89;102636.25;5059220;27;20066;-42
2021/04/12 06:59:38;;;;;;;4.70;1.53;;;;;;;3.71;75.34;102636.66;5137165;27;20118;-43
2021/04/12 07:02:21;;;;;;;2.80;1.50;;;;;;;3.77;75.08;102637.91;5137194;27;20027;-43
2021/04/12 07:05:14;;;;;;;4.93;1.65;;;;;;;3.87;74.75;102641.41;5137546;27;20077;-42
2021/04/12 07:08:13;;;;;;;2.78;1.40;;;;;;;3.99;74.36;102652.81;5137377;27;20038;-42
2021/04/12 07:11:30;;;;;;;2.80;1.55;;;;;;;4.09;74.29;102657.13;5137276;27;20027;-43
2021/04/12 07:14:47;;;;;;;4.60;1.60;;;;;;;4.13;73.29;102657.72;5136274;27;20019;-43
2021/04/12 07:17:37;;;;;;;2.40;1.48;;;;;;;4.26;73.35;102668.97;5137372;27;20026;-43
2021/04/12 07:20:44;;;;;;;6.15;1.30;;;;;;;4.31;72.75;102660.50;5136430;27;20092;-43
2021/04/12 07:23:28;;;;;;;5.93;1.48;;;;;;;4.18;72.47;102673.34;5136737;27;20352;-42
2021/04/12 07:26:32;;;;;;;5.10;1.50;;;;;;;4.10;72.10;102671.41;5136851;27;20110;-43
2021/04/12 07:29:14;;;;;;;5.68;1.77;;;;;;;4.18;72.31;102679.53;5092648;28;20035;-43
2021/04/12 07:32:08;;;;;;;2.30;1.58;;;;;;;4.22;72.11;102678.25;5093146;28;20032;-43
2021/04/12 07:35:01;;;;;;;4.80;1.48;;;;;;;4.31;71.86;102687.28;5093285;28;20115;-43
2021/04/12 07:37:41;;;;;;;4.13;1.67;;;;;;;4.43;70.80;102696.81;5093334;28;20028;-43
2021/04/12 07:40:28;;;;;;;5.45;1.48;;;;;;;4.56;70.88;102693.81;5093177;28;20036;-43
2021/04/12 07:43:13;;;;;;;3.03;1.38;;;;;;;4.62;70.48;102702.09;5093340;28;20471;-42
2021/04/12 07:45:57;;;;;;;5.55;1.50;;;;;;;4.63;69.37;102698.44;5092735;28;20031;-42
2021/04/12 07:48:58;;;;;;;2.85;1.10;;;;;;;4.79;69.16;102703.19;5093424;28;20121;-42
2021/04/12 07:51:29;;;;;;;2.13;0.82;;;;;;;4.81;67.19;102709.22;5092288;28;20032;-42
2021/04/12 07:53:54;;;;;;;1.85;0.77;;;;;;;4.84;67.33;102714.31;5092968;28;20464;-42
2021/04/12 07:56:37;;;;;;;3.47;0.77;;;;;;;4.84;68.19;102710.78;5092825;28;20074;-42
2021/04/12 07:59:24;;;;;;;5.70;1.00;;;;;;;4.68;67.78;102711.41;5092786;28;20032;-42
2021/04/12 08:02:39;;;;;;;4.20;1.08;;;;;;;4.62;68.82;102731.59;5092710;28;20036;-42
2021/04/12 08:05:26;;;;;;;3.88;1.10;;;;;;;4.51;69.45;102723.72;5096911;27;20039;-42
2021/04/12 08:08:27;;;;;;;5.03;1.10;;;;;;;4.57;69.98;102730.34;5135203;27;20486;-42
2021/04/12 08:11:01;;;;;;;2.70;1.30;;;;;;;4.54;70.02;102739.53;5135536;27;20519;-43
2021/04/12 08:14:20;;;;;;;2.95;1.40;;;;;;;4.68;69.73;102740.88;5136235;27;20035;-43
2021/04/12 08:17:07;;;;;;;2.50;1.35;;;;;;;4.85;68.54;102737.44;5135347;27;20026;-43
2021/04/12 08:19:51;;;;;;;5.35;1.45;;;;;;;5.21;68.73;102728.66;5135793;27;20113;-43
2021/04/12 08:22:28;;;;;;;4.32;1.17;;;;;;;5.65;67.61;102727.81;5135747;27;20031;-43
2021/04/12 08:25:15;;;;;;;4.13;2.08;;;;;;;5.92;66.78;102724.25;5135722;27;20059;-43
2021/04/12 08:28:05;;;;;;;2.97;1.10;;;;;;;5.72;66.90;102760.25;5135701;27;20022;-43
2021/04/12 08:30:57;;;;;;;14.35;2.03;;;;;;;5.09;68.45;102762.88;5135408;27;20023;-43
2021/04/12 08:33:45;;;;;;;2.05;0.80;;;;;;;4.43;71.55;102787.88;5135640;27;20019;-43
2021/04/12 08:36:29;;;;;;;2.85;0.80;;;;;;;3.71;73.07;102786.50;5134810;27;20027;-43
2021/04/12 08:39:32;;;;;;;0.90;0.50;;;;;;;3.18;74.12;102794.78;5135508;27;20055;-43
2021/04/12 08:42:13;;;;;;;2.63;0.60;;;;;;;2.73;76.16;102800.50;5134917;27;20027;-42
2021/04/12 08:45:26;;;;;;;1.70;0.80;;;;;;;2.53;76.44;102794.16;5134911;27;20110;-42
2021/04/12 08:48:10;;;;;;;1.55;0.70;;;;;;;2.40;77.71;102808.69;5091645;28;20043;-42
2021/04/12 08:51:09;;;;;;;2.17;1.00;;;;;;;2.26;79.03;102802.69;5091500;28;20040;-42
2021/04/12 08:53:49;;;;;;;2.15;0.90;;;;;;;2.18;79.57;102810.47;5092070;28;20040;-42
2021/04/12 08:56:36;;;;;;;4.18;1.42;;;;;;;2.19;79.01;102796.16;5091265;28;20032;-42
2021/04/12 08:59:37;;;;;;;2.38;0.80;;;;;;;2.22;79.30;102795.06;5092036;28;20032;-42
2021/04/12 09:02:40;;;;;;;1.88;0.90;;;;;;;2.21;80.29;102798.72;5092086;28;20491;-42
2021/04/12 09:05:14;;;;;;;1.35;0.80;;;;;;;2.25;80.72;102789.47;5091196;28;20475;-42
2021/04/12 09:08:05;;;;;;;2.05;0.93;;;;;;;2.43;80.66;102787.06;5091470;28;20027;-42
2021/04/12 09:11:03;;;;;;;3.15;1.10;;;;;;;2.53;79.88;102778.13;5091740;28;20072;-42
2021/04/12 09:13:58;;;;;;;3.05;1.10;;;;;;;2.68;79.62;102781.31;5091515;28;20036;-43
2021/04/12 09:17:11;;;;;;;1.77;1.10;;;;;;;2.85;79.32;102782.53;5091638;28;20063;-42
2021/04/12 09:19:54;;;;;;;1.83;1.20;;;;;;;3.02;79.12;102787.25;5081968;28;20036;-43
2021/04/12 09:23:02;;;;;;;2.55;1.10;;;;;;;3.22;78.99;102788.19;5096827;28;20043;-42
2021/04/12 09:25:52;;;;;;;2.15;1.23;;;;;;;3.43;78.81;102787.28;5135211;27;20031;-43
2021/04/12 09:28:32;;;;;;;2.90;1.30;;;;;;;3.65;79.69;102788.84;5134690;27;20421;-42
2021/04/12 09:31:42;;;;;;;2.35;1.20;;;;;;;3.85;78.76;102794.09;5134637;27;20102;-42
2021/04/12 09:34:38;;;;;;;3.17;1.90;;;;;;;4.13;78.45;102787.06;5091453;28;20074;-42
2021/04/12 09:37:26;;;;;;;3.17;1.38;;;;;;;4.35;76.01;102793.97;5091601;28;20066;-43
2021/04/12 09:39:54;;;;;;;1.80;1.10;;;;;;;4.67;77.09;102789.25;5011530;28;20041;-43
2021/04/12 09:42:55;;;;;;;2.38;1.27;;;;;;;4.89;76.56;102799.66;5011317;28;20088;-43
2021/04/12 09:45:39;;;;;;;4.15;1.40;;;;;;;5.03;76.32;102801.88;5011537;28;20049;-43
2021/04/12 09:48:31;;;;;;;2.30;1.20;;;;;;;5.11;75.23;102799.28;5011535;28;20034;-43
2021/04/12 09:51:05;;;;;;;4.72;1.30;;;;;;;5.24;74.35;102798.94;5011553;28;20045;-43
2021/04/12 09:54:03;;;;;;;2.63;1.30;;;;;;;5.37;74.39;102796.78;5015315;28;20042;-43
2021/04/12 09:56:31;;;;;;;3.15;1.30;;;;;;;5.55;75.94;102794.13;5014994;28;20072;-43
2021/04/12 09:58:59;;;;;;;2.00;1.17;;;;;;;5.67;71.79;102794.78;5014935;28;20042;-43
2021/04/12 10:02:02;;;;;;;3.67;1.38;;;;;;;5.88;73.33;102797.16;5015378;28;20438;-43
2021/04/12 10:04:52;;;;;;;1.55;1.15;;;;;;;5.84;71.41;102807.34;5015274;28;20069;-43
2021/04/12 10:07:39;;;;;;;2.78;1.42;;;;;;;5.58;70.14;102803.72;5014780;28;20037;-43
2021/04/12 10:10:10;;;;;;;2.80;1.25;;;;;;;5.36;70.94;102804.97;5022746;28;20532;-43
2021/04/12 10:13:10;;;;;;;2.78;1.60;;;;;;;5.18;71.58;102821.00;5074509;28;20115;-43
2021/04/12 10:15:35;;;;;;;2.22;1.50;;;;;;;4.84;72.79;102821.53;5074438;28;20111;-47
2021/04/12 10:18:25;;;;;;;1.63;1.30;;;;;;;4.68;72.77;102825.78;5135412;27;20062;-43
2021/04/12 10:21:03;;;;;;;1.65;1.00;;;;;;;4.43;73.43;102830.75;5138104;27;20360;-43
2021/04/12 10:23:31;;;;;;;1.80;1.15;;;;;;;4.33;74.52;102828.09;5137523;27;20072;-43
2021/04/12 10:25:58;;;;;;;1.20;1.00;;;;;;;4.31;73.85;102832.75;5137145;27;20106;-44
2021/04/12 10:28:28;;;;;;;3.17;1.08;;;;;;;4.31;73.64;102830.06;5137238;27;20030;-43
2021/04/12 10:31:16;;;;;;;1.80;0.80;;;;;;;4.41;73.17;102826.53;5138276;27;20027;-43
2021/04/12 10:33:53;;;;;;;2.13;0.90;;;;;;;4.37;72.07;102824.13;5137130;27;20123;-43
2021/04/12 10:36:26;;;;;;;1.95;1.10;;;;;;;4.41;73.27;102831.91;5137890;27;20031;-43
2021/04/12 10:39:07;;;;;;;2.53;1.10;;;;;;;4.41;73.09;102834.59;5137370;27;20023;-44
2021/04/12 10:41:40;;;;;;;2.17;1.17;;;;;;;4.38;72.60;102831.19;5137949;27;20027;-44
2021/04/12 10:44:39;;;;;;;2.03;1.10;;;;;;;4.38;73.52;102825.81;5137246;27;20027;-44
2021/04/12 10:47:19;;;;;;;1.65;1.20;;;;;;;4.31;72.53;102819.34;5137018;27;20493;-43
2021/04/12 10:50:08;;;;;;;11.00;1.67;;;;;;;4.48;73.75;102820.47;5137487;27;20038;-44
2021/04/12 10:52:51;;;;;;;1.92;1.35;;;;;;;4.60;73.65;102815.81;5137100;27;20026;-43
2021/04/12 10:55:25;;;;;;;2.88;1.50;;;;;;;4.65;73.63;102814.38;5137053;27;20019;-42
2021/04/12 10:58:17;;;;;;;2.67;1.65;;;;;;;4.88;73.23;102805.97;5137502;27;20160;-43
2021/04/12 11:00:48;;;;;;;3.95;1.83;;;;;;;5.05;72.69;102807.91;5136920;27;20030;-44
2021/04/12 11:03:23;;;;;;;7.32;2.58;;;;;;;5.22;72.28;102805.44;5136891;27;20457;-43
2021/04/12 11:06:07;;;;;;;3.72;1.92;;;;;;;5.22;71.49;102805.44;5136334;27;20087;-43
2021/04/12 11:08:49;;;;;;;3.65;2.00;;;;;;;5.19;70.79;102814.66;5136470;27;20031;-43
2021/04/12 11:11:31;;;;;;;3.15;1.88;;;;;;;5.25;70.54;102808.69;5137553;27;20181;-45
2021/04/12 11:14:07;;;;;;;1.73;1.33;;;;;;;5.32;68.11;102817.84;5136393;27;20031;-43
2021/04/12 11:16:48;;;;;;;1.90;1.57;;;;;;;5.59;68.87;102824.19;5136355;27;20031;-43
2021/04/12 11:19:38;;;;;;;3.00;1.50;;;;;;;5.94;68.55;102824.28;5135883;27;20084;-44
2021/04/12 11:22:25;;;;;;;1.88;1.73;;;;;;;6.24;68.09;102822.22;5136564;27;20043;-42
2021/04/12 11:24:50;;;;;;;3.90;1.90;;;;;;;6.31;66.56;102819.78;5137015;27;20504;-42
2021/04/12 11:27:55;;;;;;;2.00;1.80;;;;;;;6.55;66.98;102821.81;5136738;27;20130;-42
2021/04/12 11:30:40;;;;;;;2.53;1.88;;;;;;;6.70;65.15;102822.94;5137027;27;20020;-43
2021/04/12 11:33:56;;;;;;;2.95;2.25;;;;;;;6.84;65.36;102810.75;5136219;27;20023;-43
2021/04/12 11:36:21;;;;;;;3.05;2.63;;;;;;;7.06;66.18;102815.59;5072333;28;20051;-43
2021/04/12 11:39:00;;;;;;;2.97;2.33;;;;;;;7.30;65.20;102820.25;5072429;28;20033;-43
2021/04/12 11:41:33;;;;;;;3.28;2.60;;;;;;;7.46;66.50;102811.41;5072440;28;20123;-44
2021/04/12 11:44:02;;;;;;;3.53;2.33;;;;;;;7.78;64.78;102807.97;5072591;28;20551;-43
2021/04/12 11:46:58;;;;;;;2.00;1.80;;;;;;;8.04;62.84;102813.25;5072459;28;20043;-42
2021/04/12 11:49:59;;;;;;;5.10;2.00;;;;;;;7.93;60.83;102814.41;5072242;28;20039;-42
2021/04/12 11:52:45;;;;;;;2.13;1.75;;;;;;;7.90;60.19;102820.09;5072575;28;20036;-43
2021/04/12 11:55:25;;;;;;;5.00;1.70;;;;;;;7.86;60.58;102816.09;5072404;28;20032;-43
2021/04/12 11:58:00;;;;;;;3.00;1.80;;;;;;;7.93;60.29;102819.78;5071950;28;20174;-43
2021/04/12 12:00:50;;;;;;;2.90;1.58;;;;;;;7.99;60.88;102819.13;5072048;28;20036;-43
2021/04/12 12:03:31;;;;;;;2.78;1.80;;;;;;;8.22;59.54;102808.56;5072554;28;20058;-43
2021/04/12 12:06:18;;;;;;;2.80;1.75;;;;;;;8.57;58.74;102808.41;5071957;28;20052;-43
2021/04/12 12:09:01;;;;;;;3.72;1.40;;;;;;;8.58;56.40;102815.47;5071829;28;20028;-42
2021/04/12 12:12:11;;;;;;;3.60;1.52;;;;;;;8.41;56.71;102818.19;5090892;27;20035;-42
2021/04/12 12:14:49;;;;;;;3.10;1.20;;;;;;;8.36;54.22;102823.25;5092212;28;20032;-42
2021/04/12 12:17:18;;;;;;;2.65;1.40;;;;;;;8.55;52.67;102822.06;5092300;28;20488;-42
2021/04/12 12:20:10;;;;;;;1.80;1.10;;;;;;;8.65;52.67;102830.00;5092104;28;20433;-42
2021/04/12 12:22:57;;;;;;;1.70;1.15;;;;;;;8.59;53.14;102831.50;5092480;28;20450;-42
2021/04/12 12:25:37;;;;;;;3.10;1.10;;;;;;;8.29;52.84;102829.44;5092027;28;20121;-42
2021/04/12 12:28:23;;;;;;;3.17;1.30;;;;;;;8.00;53.69;102833.44;5092428;28;20039;-42
2021/04/12 12:31:30;;;;;;;3.25;1.23;;;;;;;8.02;54.11;102820.66;5092250;28;20063;-42
2021/04/12 12:34:16;;;;;;;1.27;1.08;;;;;;;7.79;51.16;102833.06;5091627;28;20039;-42
2021/04/12 12:36:44;;;;;;;1.73;1.20;;;;;;;7.87;52.94;102835.78;5092001;28;20123;-42
2021/04/12 12:39:28;;;;;;;2.90;1.30;;;;;;;8.24;52.59;102838.03;5091868;28;20610;-42
2021/04/12 12:41:54;;;;;;;2.47;1.20;;;;;;;8.56;52.25;102823.75;5092226;28;20028;-42
2021/04/12 12:44:23;;;;;;;2.90;1.10;;;;;;;8.73;50.13;102832.66;5091962;28;20058;-42
2021/04/12 12:46:49;;;;;;;1.90;1.10;;;;;;;8.74;50.38;102827.13;5092061;28;20525;-43
2021/04/12 12:49:20;;;;;;;;;;;;;;;8.86;51.61;102818.66;5092401;28;20036;-42
2021/04/12 12:52:08;;;;;;;1.60;0.90;;;;;;;9.01;50.00;102823.16;5124744;27;19914;-42
2021/04/12 12:54:40;;;;;;;2.05;1.00;;;;;;;9.21;49.46;102825.47;5134526;27;20023;-42
2021/04/12 12:57:20;;;;;;;3.13;1.38;;;;;;;9.37;48.68;102825.44;5134848;27;20041;-42
2021/04/12 13:00:07;;;;;;;3.53;1.13;;;;;;;9.51;48.73;102830.06;5134178;27;20422;-42
2021/04/12 13:02:37;;;;;;;;;;;;;;;9.64;48.93;102823.28;5135380;27;20023;-42
2021/04/12 13:05:09;;;;;;;4.15;1.13;;;;;;;9.28;48.06;102831.88;5134945;27;19954;-44